Date,TemperatureHighF,TemperatureAvgF,TemperatureLowF,DewpointHighF,DewpointAvgF,DewpointLowF,HumidityHigh,HumidityAvg,HumidityLow,PressureMaxIn,PressureMinIn,WindSpeedMaxMPH,WindSpeedAvgMPH,GustSpeedMaxMPH,PrecipitationSumIn
2013-1-1,26.7,12.7,6.6,8.2,3.6,-0.2,78,67,42,30.61,30.26,5,1,12,0.00
2013-1-2,29.5,15.1,2.9,11.9,4.2,-4.1,75,63,41,30.66,30.34,4,1,11,0.01
2013-1-3,23.8,5.9,-6.2,2.7,-4.8,-12.6,75,62,33,30.92,30.63,3,2,9,0.00
2013-1-4,2.3,-0.8,-3.1,-5.3,-7.5,-9.6,73,73,70,30.79,30.69,4,2,7,0.00
2013-1-6,28.1,11.4,-1.7,9.0,0.4,-7.7,76,63,37,30.81,30.35,7,2,12,0.00
2013-1-7,34.7,16.4,2.5,11.1,4.5,-3.3,77,61,31,30.52,30.17,6,1,9,0.00
2013-1-8,36.6,18.8,6.7,15.8,7.3,0.9,77,63,34,30.63,30.25,3,1,6,0.00
2013-1-9,38.5,19.4,6.9,16.6,9.0,1.5,78,65,37,30.77,30.32,5,2,11,0.00
2013-1-10,40.6,20.5,8.7,23.5,11.2,3.2,79,68,45,30.32,29.48,4,1,14,0.00
2013-1-11,40.5,29.4,18.9,25.7,18.2,8.9,86,65,36,29.63,29.31,10,3,22,0.00
2013-1-13,15.8,6.5,-0.7,1.3,-3.2,-7.0,79,65,50,30.38,30.20,6,1,15,0.00
2013-1-14,3.2,-2.5,-6.4,-6.3,-10.5,-14.0,71,68,63,30.55,30.33,2,0,4,0.00
2013-1-16,30.0,9.5,-1.7,9.3,-1.8,-9.1,73,61,36,30.98,30.65,4,2,7,0.00
2013-1-17,35.5,15.3,1.7,14.8,5.1,-4.3,77,66,38,30.98,30.59,4,2,7,0.00
2013-1-18,36.9,17.4,2.9,15.4,7.0,-2.7,79,65,38,30.85,30.48,5,1,7,0.00
2013-1-19,39.8,17.7,4.2,14.7,6.0,-1.4,79,63,28,30.83,30.48,5,2,9,0.00
2013-1-20,39.8,18.1,3.4,13.7,5.1,-2.6,76,59,29,30.76,30.39,4,1,7,0.00
2013-1-21,41.3,19.6,5.1,13.5,5.7,-1.2,75,58,25,30.74,30.39,4,1,7,0.00
2013-1-22,41.8,19.8,4.7,13.7,5.7,-2.2,74,57,27,30.75,30.41,5,2,10,0.00
2013-1-23,40.6,21.0,5.7,17.9,6.8,-1.7,72,57,29,30.78,30.44,5,2,9,0.00
2013-1-24,39.5,26.6,14.9,29.5,18.5,7.9,90,72,41,30.54,30.33,7,1,15,0.02
2013-1-25,38.8,34.4,31.3,34.4,31.4,29.0,92,89,81,30.36,30.16,6,0,12,0.05
2013-1-26,43.8,36.3,32.6,33.7,31.7,30.0,92,84,59,30.16,29.76,3,0,6,0.18
2013-1-27,43.8,36.9,32.4,34.6,31.9,28.8,91,82,59,29.85,29.62,8,1,13,0.11
2013-1-28,41.6,30.6,21.0,31.7,27.4,16.7,91,88,62,29.85,29.61,5,1,15,0.41
2013-1-29,24.1,17.8,8.9,16.7,10.2,3.2,84,72,56,30.22,29.85,6,1,17,0.04
2013-1-30,22.4,17.9,10.6,18.7,13.1,4.8,87,81,73,30.36,30.21,12,2,21,0.00
2013-1-31,38.3,27.1,21.6,25.0,21.0,18.1,87,78,52,30.45,30.25,4,0,10,0.11
2013-2-1,39.8,30.5,24.8,24.5,22.3,19.7,85,72,50,30.40,30.19,8,1,18,0.01
2013-2-2,40.9,25.8,12.8,23.8,16.0,8.3,83,68,41,30.68,30.38,4,1,7,0.00
2013-2-3,40.6,25.2,16.2,19.8,14.9,10.8,81,66,34,30.49,30.13,6,2,13,0.00
2013-2-4,43.3,25.6,10.2,20.4,13.4,5.3,81,62,36,30.43,30.11,5,1,13,0.00
2013-2-5,46.2,27.5,13.0,23.1,15.0,7.4,79,62,31,30.41,30.02,5,1,9,0.00
2013-2-6,43.0,30.0,17.7,30.8,21.6,13.1,86,72,48,30.11,29.92,4,1,10,0.01
2013-2-7,44.2,28.9,18.8,25.7,16.8,11.1,87,63,26,30.32,30.06,3,0,6,0.00
2013-2-8,44.0,29.3,14.5,25.5,14.2,7.5,75,55,30,30.16,29.59,8,1,16,0.00
2013-2-9,40.3,32.9,29.1,26.1,22.5,17.7,84,66,42,29.61,29.47,7,1,21,0.00
2013-2-14,39.0,30.8,25.5,24.6,19.1,13.9,85,63,41,30.31,30.12,7,1,19,0.01
2013-2-15,38.0,27.4,19.6,17.0,13.0,9.3,73,56,34,30.55,30.28,6,1,20,0.00
2013-2-16,43.3,26.2,11.6,15.3,10.8,4.9,75,55,30,30.68,30.23,8,2,13,0.00
2013-2-17,45.9,29.8,15.3,23.8,12.8,8.8,75,53,24,30.23,29.69,11,2,20,0.00
2013-2-18,37.3,27.2,18.1,16.2,7.7,4.0,63,44,27,30.24,29.85,10,1,22,0.00
2013-2-19,42.2,24.3,8.3,15.9,6.5,0.5,70,49,23,30.31,29.78,4,1,8,0.00
2013-2-20,45.7,29.9,17.0,25.5,13.8,7.9,77,54,25,29.80,29.43,9,2,17,0.00
2013-2-21,38.0,31.3,24.1,25.7,17.8,13.0,78,58,41,29.91,29.49,4,1,17,0.00
2013-2-22,34.6,24.6,16.9,16.9,10.9,3.4,78,58,30,30.19,29.91,8,1,22,0.00
2013-2-23,36.3,22.1,9.9,23.4,12.4,2.3,87,67,45,30.21,29.73,6,1,18,0.00
2013-2-24,30.7,24.1,19.1,20.3,15.6,12.0,83,70,56,30.20,29.76,6,1,15,0.04
2013-2-25,37.3,21.9,7.3,13.4,7.7,1.0,76,57,29,30.44,30.02,6,1,14,0.00
2013-2-26,31.0,24.6,16.9,18.9,11.9,7.2,83,59,38,30.30,29.90,11,2,27,0.03
2013-2-27,35.3,20.7,6.9,10.6,4.7,0.4,75,53,29,30.56,30.30,4,1,15,0.00
2013-2-28,38.6,22.9,6.2,24.0,7.4,-1.9,87,54,27,30.70,30.43,5,1,13,0.00
2013-3-1,43.9,32.0,24.7,27.7,24.3,21.4,88,74,47,30.57,30.37,7,1,16,0.09
2013-3-2,52.9,36.6,23.2,26.9,22.3,18.3,82,60,30,30.58,30.13,8,1,14,0.00
2013-3-3,50.1,36.6,27.5,34.2,25.6,21.6,90,67,33,30.13,29.76,6,1,14,0.20
2013-3-4,40.6,32.7,19.7,36.6,21.1,6.4,92,66,31,30.34,29.69,8,1,21,0.34
2013-3-5,46.2,26.4,11.6,15.3,7.8,2.0,70,49,18,30.63,30.19,4,1,9,0.00
2013-3-6,58.3,36.4,18.3,23.2,17.0,11.1,74,49,19,30.25,29.78,5,1,12,0.00
2013-3-7,61.2,42.8,29.1,23.0,19.1,12.5,70,43,15,29.98,29.72,4,1,14,0.00
2013-3-8,54.4,39.2,28.2,32.3,23.3,16.0,87,56,23,29.90,29.51,8,1,18,0.06
2013-3-9,35.5,32.3,27.2,32.3,29.1,22.7,91,88,83,30.12,29.50,4,1,12,0.12
2013-3-10,42.5,27.4,13.0,22.4,16.9,8.0,84,67,41,30.42,30.13,3,1,7,0.01
2013-3-11,49.2,33.7,20.0,26.2,19.6,14.2,80,59,32,30.35,30.02,4,1,13,0.00
2013-3-12,54.7,42.1,33.1,29.2,25.1,21.4,73,53,30,30.22,30.02,4,0,15,0.00
2013-3-13,58.4,41.8,27.6,26.3,23.2,19.3,80,52,23,30.41,30.18,6,1,13,0.00
2013-3-14,65.3,43.4,27.0,26.4,23.2,19.5,77,50,18,30.47,30.11,5,1,12,0.00
2013-3-15,66.3,46.0,29.5,27.8,25.3,23.0,77,49,21,30.19,29.81,4,2,12,0.00
2013-3-16,56.3,44.1,36.3,33.3,29.2,25.5,73,56,32,29.85,29.66,8,1,19,0.00
2013-3-17,48.3,38.9,30.1,36.7,23.7,7.2,91,60,23,29.79,29.58,8,1,27,0.17
2013-3-18,47.7,38.5,29.5,16.1,12.1,6.1,51,35,21,29.95,29.77,6,1,20,0.00
2013-3-19,50.8,39.5,28.8,18.9,6.4,-7.7,57,30,9,30.23,29.90,7,1,18,0.00
2013-3-20,49.9,34.3,20.7,34.0,15.7,3.8,82,50,22,30.29,29.81,6,1,12,0.01
2013-3-21,45.5,36.4,30.4,34.6,27.3,18.8,91,71,38,29.90,29.62,11,1,24,0.36
2013-3-22,46.2,33.2,24.1,20.2,15.2,7.7,74,51,22,29.91,29.55,11,2,20,0.00
2013-3-23,32.5,25.6,21.1,20.5,11.4,3.6,79,55,38,30.23,29.74,15,3,24,0.00
2013-3-24,31.9,19.6,12.1,16.1,4.0,-1.2,71,52,27,30.35,30.17,8,1,20,0.00
2013-3-25,41.3,24.6,8.1,6.7,0.8,-3.3,62,39,16,30.51,30.21,6,1,14,0.00
2013-3-26,55.9,38.3,21.9,23.0,13.6,5.1,61,38,22,30.29,29.80,9,1,16,0.00
2013-3-27,62.1,47.0,31.5,27.9,21.9,15.9,72,40,18,29.98,29.74,5,1,19,0.00
2013-3-28,62.3,45.6,29.5,25.9,22.8,19.1,71,44,20,30.08,29.85,7,1,15,0.00
2013-3-29,62.6,49.0,37.9,33.5,27.9,24.1,62,46,24,30.08,29.88,9,1,21,0.00
2013-3-30,63.7,46.9,30.3,32.3,26.4,20.4,83,50,21,30.15,29.89,10,1,19,0.00
2013-3-31,65.8,46.1,28.1,26.1,22.5,17.6,79,45,18,30.15,29.81,4,1,16,0.00
2013-4-1,62.3,46.7,32.9,39.9,26.8,18.7,66,48,21,29.94,29.63,11,2,22,0.02
2013-4-2,55.4,45.8,38.5,36.1,31.5,24.1,83,59,35,29.90,29.68,8,1,19,0.01
2013-4-3,61.0,47.3,36.6,32.8,26.8,18.1,79,50,21,30.06,29.85,5,0,14,0.00
2013-4-4,67.0,48.6,29.7,27.1,23.3,20.8,73,42,18,30.18,29.82,4,1,22,0.00
2013-4-5,48.8,43.4,41.0,26.2,25.2,23.9,55,48,44,29.85,29.80,2,0,5,0.00
2013-4-6,61.3,45.9,34.6,37.5,31.1,21.5,89,63,23,29.95,29.70,5,1,18,0.08
2013-4-7,58.3,45.4,33.5,40.2,30.2,21.6,89,60,26,29.82,29.53,10,0,20,0.02
2013-4-8,58.3,45.3,38.5,38.4,30.0,23.6,88,58,27,29.57,29.17,17,1,29,0.06
2013-4-9,41.6,29.6,19.4,37.4,23.4,12.2,87,78,67,30.12,29.26,7,2,17,0.03
2013-4-10,39.5,26.9,15.3,20.4,11.3,6.1,73,53,30,30.31,30.00,8,2,23,0.02
2013-4-11,52.3,36.2,28.8,31.3,24.0,14.0,81,63,39,30.10,29.73,6,1,16,0.02
2013-4-14,48.6,39.7,34.3,35.8,20.5,5.9,90,51,21,29.71,29.39,10,1,22,0.12
2013-4-15,41.8,34.6,32.4,32.3,29.4,20.4,91,83,44,29.75,29.39,8,1,17,0.44
2013-4-16,56.9,37.7,26.6,37.2,28.3,23.1,92,72,30,29.76,29.40,18,4,30,0.21
2013-4-17,36.0,28.0,23.0,23.1,17.0,8.9,84,64,45,30.17,29.68,8,3,21,0.00
2013-4-18,36.0,27.1,19.7,14.1,8.4,5.2,65,46,29,30.40,30.13,11,2,25,0.00
2013-4-19,47.3,34.3,19.9,30.5,15.3,7.6,79,47,28,30.41,30.00,5,1,20,0.00
2013-4-20,51.7,39.5,32.9,36.0,33.0,28.5,91,79,47,30.04,29.84,10,0,22,0.20
2013-4-21,58.0,45.5,35.6,36.9,29.5,17.7,90,59,27,30.10,29.82,4,1,17,0.00
2013-4-22,57.3,46.7,39.6,30.2,26.6,18.6,66,47,23,29.85,29.69,9,2,20,0.00
2013-4-23,44.6,37.6,29.2,30.9,15.9,3.5,77,45,19,30.16,29.78,10,2,21,0.00
2013-4-24,55.4,39.2,25.7,16.2,12.1,7.4,64,36,16,30.23,30.05,9,1,15,0.00
2013-4-25,36.0,31.6,29.4,16.8,14.9,12.1,59,50,40,30.12,30.08,3,1,6,0.00
2013-4-27,70.0,49.6,30.7,25.8,21.2,18.2,67,37,15,30.22,29.88,8,1,17,0.00
2013-4-28,75.0,54.2,32.6,29.7,24.2,20.9,68,36,15,30.05,29.60,7,1,20,0.00
2013-4-29,76.2,60.5,41.8,31.7,27.1,23.0,60,31,16,29.73,29.39,7,1,19,0.00
2013-4-30,71.0,57.8,44.3,36.9,29.1,23.0,60,36,19,29.54,29.31,11,2,22,0.00
2013-5-1,53.0,40.8,32.5,36.5,24.1,10.4,91,57,22,30.37,29.50,10,2,20,0.32
2013-5-2,41.9,30.7,25.3,20.7,18.7,12.5,74,62,31,30.60,30.34,4,0,11,0.00
2013-5-3,66.0,43.1,26.1,21.2,17.4,8.0,73,41,11,30.39,29.80,6,1,16,0.00
2013-5-4,69.0,51.6,31.0,29.8,22.7,15.5,68,37,15,29.90,29.65,8,2,22,0.00
2013-5-5,66.6,47.1,39.2,32.3,29.7,22.5,69,53,19,29.82,29.66,5,1,13,0.00
2013-5-6,65.0,51.5,44.9,43.9,33.8,26.9,89,54,26,29.81,29.63,10,1,21,0.14
2013-5-7,56.2,47.1,42.0,43.6,40.0,35.0,91,78,47,29.91,29.77,6,0,17,0.11
2013-5-8,52.5,43.3,39.3,40.6,38.4,36.0,90,83,60,29.98,29.81,4,0,12,0.31
2013-5-9,61.3,49.0,40.3,40.5,37.0,31.4,90,67,34,30.00,29.84,6,1,16,0.05
2013-5-10,67.3,50.4,34.6,38.8,32.6,28.0,88,56,24,30.14,29.95,9,1,22,0.00
2013-5-11,71.8,53.9,35.6,34.9,30.6,25.2,81,47,18,30.27,29.99,8,1,17,0.00
2013-5-12,76.5,58.5,40.6,38.1,33.4,30.3,75,43,20,30.15,29.85,7,1,18,0.00
2013-5-13,82.5,64.7,42.9,38.4,34.6,30.5,74,38,16,30.08,29.75,5,1,16,0.00
2013-5-14,84.0,61.9,43.9,51.5,38.0,30.8,74,46,15,29.89,29.56,9,1,22,0.02
2013-5-15,76.2,58.2,46.2,46.6,41.0,36.6,84,57,25,29.82,29.54,10,1,31,0.16
2013-5-16,77.1,58.8,42.2,50.8,40.2,33.2,88,56,22,29.83,29.52,5,1,17,0.03
2013-5-17,78.3,61.2,42.6,37.6,28.7,19.8,74,36,12,29.72,29.52,6,1,18,0.00
2013-5-18,65.0,52.0,43.3,42.9,32.0,26.8,61,47,31,29.73,29.55,13,1,26,0.05
2013-5-22,79.5,58.4,40.5,35.5,30.7,20.7,75,41,12,29.73,29.46,7,1,18,0.00
2013-5-23,84.2,64.3,42.2,35.2,26.7,17.4,66,30,10,29.66,29.40,11,2,27,0.00
2013-5-24,79.8,64.2,46.8,32.5,25.3,16.3,53,26,10,29.69,29.46,9,1,20,0.00
2013-5-25,81.9,63.2,38.9,31.5,25.6,18.2,64,29,10,29.85,29.58,7,1,25,0.00
2013-5-26,82.1,63.7,42.0,33.5,26.7,19.6,61,29,11,29.78,29.54,4,1,17,0.00
2013-5-27,78.2,60.6,39.6,29.6,24.8,20.4,62,29,12,29.73,29.48,5,1,18,0.00
2013-5-28,75.1,59.0,40.5,37.0,29.1,22.7,64,35,15,29.57,29.32,12,1,23,0.00
2013-5-29,61.2,49.6,41.9,43.0,39.1,33.3,87,69,41,29.66,29.36,9,1,23,0.25
2013-5-30,66.0,53.8,38.9,39.1,30.6,23.3,83,47,21,29.72,29.56,5,1,15,0.01
2013-5-31,68.0,55.9,41.8,32.7,24.7,13.9,66,33,13,29.90,29.65,7,1,22,0.00
2013-6-1,72.4,54.2,33.8,33.5,27.2,21.1,67,38,19,30.11,29.83,3,0,10,0.00
2013-6-2,84.8,61.0,37.2,34.7,29.6,25.2,74,37,12,29.99,29.50,7,1,16,0.00
2013-6-3,83.5,64.1,42.2,38.9,31.5,26.3,67,34,14,29.65,29.45,7,1,17,0.00
2013-6-4,84.4,65.4,42.3,38.3,32.9,26.4,68,34,14,29.76,29.52,6,1,17,0.00
2013-6-5,78.5,63.7,45.4,37.5,32.2,26.0,66,34,15,29.80,29.57,6,1,19,0.00
2013-6-6,82.1,63.3,40.9,38.3,32.6,29.7,69,36,16,29.90,29.64,6,1,15,0.00
2013-6-7,83.7,65.3,49.3,42.9,36.9,31.7,64,39,17,29.79,29.51,4,0,15,0.00
2013-6-8,83.7,65.0,47.3,42.7,36.9,32.6,67,39,17,29.67,29.51,7,1,18,0.00
2013-6-9,89.2,68.2,44.8,41.8,36.5,33.1,70,36,14,29.87,29.56,4,0,13,0.00
2013-6-10,94.0,71.1,47.1,41.2,36.1,30.9,67,33,12,29.76,29.44,9,0,30,0.00
2013-6-11,87.7,69.8,49.5,39.9,30.4,23.4,57,27,11,29.69,29.50,8,1,22,0.00
2013-6-12,90.2,68.1,45.2,37.9,31.4,26.5,60,29,11,29.89,29.63,4,0,15,0.00
2013-6-13,86.9,69.5,52.3,43.9,34.6,29.7,54,30,14,29.76,29.50,5,0,18,0.00
2013-6-14,87.1,70.2,49.6,40.8,31.4,19.2,64,28,11,29.71,29.47,5,1,20,0.00
2013-6-15,84.4,65.2,42.2,37.2,29.1,21.0,59,29,13,29.83,29.59,6,1,18,0.00
2013-6-16,76.9,63.0,49.1,45.9,39.5,33.3,60,43,27,29.87,29.68,5,0,14,0.00
2013-6-17,84.0,65.9,47.9,44.6,38.7,29.8,76,43,15,29.92,29.62,6,1,18,0.00
2013-6-18,87.3,67.3,48.2,42.8,35.2,27.3,67,35,12,29.79,29.45,5,0,14,0.00
2013-6-19,87.7,67.4,42.5,32.8,25.2,15.2,60,25,7,29.65,29.37,9,1,28,0.00
2013-6-20,87.1,69.1,43.2,33.6,26.4,19.3,53,23,10,29.69,29.40,7,1,25,0.00
2013-6-21,87.1,67.0,43.6,32.5,26.6,21.7,58,26,10,29.72,29.48,5,1,17,0.00
2013-6-22,84.4,65.6,44.3,33.6,27.8,22.1,59,27,12,29.67,29.48,5,0,15,0.00
2013-6-23,86.2,66.4,43.2,39.0,29.5,22.0,59,28,14,29.75,29.42,5,0,14,0.00
2013-6-24,82.9,66.4,44.9,37.2,28.7,21.3,62,29,11,29.64,29.44,7,1,24,0.00
2013-6-25,85.2,70.6,53.3,40.3,34.7,27.5,54,28,17,29.70,29.44,4,0,16,0.00
2013-6-26,91.5,71.0,47.9,42.2,36.8,32.8,64,33,14,29.90,29.65,3,0,12,0.00
2013-6-27,95.8,73.9,51.4,44.6,38.7,32.6,59,32,12,29.98,29.69,4,0,10,0.00
2013-6-28,96.0,74.2,54.1,50.3,40.6,31.5,58,33,13,29.95,29.64,6,0,18,0.00
2013-6-29,92.9,73.8,57.2,54.5,43.5,38.1,59,37,16,29.83,29.55,6,0,21,0.00
2013-6-30,91.1,72.1,53.9,48.7,44.9,37.8,70,41,16,29.86,29.56,5,0,17,0.00
2013-7-1,90.0,72.7,53.6,47.9,41.6,34.0,69,37,15,29.90,29.66,5,0,16,0.00
2013-7-2,87.7,73.5,57.3,47.1,41.9,36.1,60,34,19,29.86,29.60,5,0,13,0.00
2013-7-3,88.7,68.1,50.5,46.3,40.6,33.5,65,40,15,29.82,29.53,10,0,25,0.00
2013-7-4,87.3,71.7,53.6,47.8,44.6,42.0,70,41,22,29.78,29.46,3,0,7,0.00
2013-7-5,88.1,73.7,60.2,54.7,50.4,43.4,74,47,24,29.61,29.37,8,0,21,0.04
2013-7-6,87.3,71.2,58.4,56.2,50.6,42.6,83,54,22,29.64,29.45,15,0,27,0.04
2013-7-7,91.3,73.5,55.4,55.2,47.6,40.0,81,46,18,29.77,29.50,4,0,15,0.00
2013-7-8,89.0,71.4,55.4,53.7,47.7,37.6,84,49,18,29.83,29.65,7,0,18,0.00
2013-7-9,92.4,74.5,56.2,47.3,41.9,35.8,63,35,14,29.90,29.67,4,0,16,0.00
2013-7-10,95.1,77.5,56.7,46.9,40.9,35.1,60,31,13,29.82,29.51,3,0,15,0.00
2013-7-11,94.8,74.8,54.8,52.4,44.0,37.1,58,36,17,29.73,29.42,10,1,19,0.00
2013-7-12,86.9,69.7,60.7,63.0,53.8,49.2,78,60,29,29.76,29.50,8,0,25,0.08
2013-7-13,87.1,72.9,60.6,58.8,53.5,46.1,85,55,26,29.83,29.57,5,0,15,0.00
2013-7-14,88.3,72.6,59.8,57.1,51.4,45.0,86,52,25,29.85,29.61,7,0,20,0.01
2013-7-15,91.3,72.4,58.0,53.3,50.1,41.8,74,49,20,29.76,29.47,10,1,24,0.00
2013-7-16,91.1,73.5,56.2,54.0,50.6,43.5,79,48,21,29.78,29.51,5,0,14,0.00
2013-7-17,90.4,74.4,61.3,56.9,51.4,45.8,66,47,23,29.81,29.58,11,1,20,0.03
2013-7-18,89.6,71.6,57.7,54.7,51.0,45.0,77,51,22,29.91,29.59,9,1,25,0.00
2013-7-19,91.3,73.1,60.1,57.0,50.0,36.5,73,49,15,29.84,29.51,5,0,13,0.01
2013-7-20,93.5,74.3,55.1,49.8,42.3,32.1,75,38,12,29.77,29.45,4,0,16,0.00
2013-7-21,93.5,72.4,51.1,43.1,36.8,30.8,63,32,11,29.72,29.47,4,0,20,0.00
2013-7-22,94.4,75.8,56.7,45.2,34.4,25.1,50,25,9,29.73,29.49,4,0,14,0.00
2013-7-23,94.4,73.3,50.5,40.1,31.9,24.8,54,25,10,29.82,29.55,4,0,11,0.00
2013-7-24,84.0,72.6,60.2,47.6,40.4,29.1,46,32,22,29.76,29.60,11,0,23,0.00
2013-7-25,85.4,71.8,59.0,53.2,46.2,42.6,61,42,25,29.81,29.61,9,1,26,0.00
2013-7-26,90.2,71.5,53.2,49.5,43.5,37.3,76,43,17,29.97,29.66,2,0,10,0.00
2013-7-27,86.9,67.3,53.8,57.4,46.0,37.6,76,49,26,29.83,29.56,7,0,14,0.04
2013-7-28,76.0,64.1,57.8,58.9,55.0,49.0,90,74,45,29.74,29.54,6,0,13,0.30
2013-7-29,75.0,63.8,57.3,59.6,53.4,49.1,88,71,42,29.87,29.70,8,0,16,0.11
2013-7-30,84.0,66.5,49.9,50.1,45.9,41.6,87,53,24,30.08,29.85,5,0,15,0.00
2013-7-31,88.5,68.5,50.7,49.0,44.2,38.3,82,47,19,30.08,29.75,2,0,9,0.00
2013-8-1,73.0,61.9,51.1,55.9,48.7,41.9,81,63,39,29.96,29.77,3,0,11,0.00
2013-8-2,85.8,68.6,52.3,54.1,49.3,44.2,89,57,26,29.91,29.63,3,0,13,0.00
2013-8-3,85.0,67.7,56.6,54.1,48.5,43.6,74,54,25,29.84,29.67,7,0,17,0.03
2013-8-4,83.7,65.1,51.9,54.8,48.9,40.7,81,59,24,29.98,29.71,7,1,22,0.01
2013-8-5,83.1,65.8,52.3,54.0,50.5,45.7,87,61,27,29.97,29.68,5,0,17,0.00
2013-8-6,78.7,64.8,52.5,52.9,48.2,40.1,85,58,28,29.84,29.67,11,1,24,0.00
2013-8-7,78.0,64.0,54.8,49.5,46.3,40.6,76,55,27,29.83,29.65,7,0,24,0.02
2013-8-8,80.6,64.9,55.1,48.9,45.0,38.7,73,51,23,29.83,29.63,5,0,17,0.00
2013-8-9,76.0,62.6,49.9,50.8,44.9,39.7,77,54,30,29.94,29.76,4,0,15,0.00
2013-8-10,82.7,61.5,47.4,53.5,44.1,36.3,84,58,21,30.06,29.77,6,0,16,0.18
2013-8-11,83.7,63.8,45.1,48.0,42.0,36.0,88,52,20,30.14,29.76,9,0,19,0.00
2013-8-12,82.7,64.8,47.0,48.7,41.5,36.7,76,47,21,29.97,29.74,8,1,19,0.00
2013-8-13,82.1,65.3,47.7,46.4,41.3,35.9,79,47,20,30.01,29.78,6,1,19,0.00
2013-8-14,84.6,66.0,46.8,45.5,38.4,28.3,78,42,16,30.01,29.74,8,0,22,0.00
2013-8-15,89.4,66.8,45.4,45.5,36.4,31.5,72,38,13,30.00,29.70,6,0,15,0.00
2013-8-16,92.0,69.2,46.8,41.8,34.2,26.8,66,33,10,30.00,29.69,4,0,11,0.00
2013-8-17,92.0,70.4,48.3,42.2,36.8,29.9,61,33,14,29.97,29.62,3,0,14,0.00
2013-8-18,87.3,70.1,56.0,48.0,44.0,39.1,61,42,22,29.86,29.64,4,0,14,0.00
2013-8-19,92.0,70.8,50.4,49.0,43.3,35.8,80,44,15,29.97,29.59,5,0,11,0.00
2013-8-20,88.1,67.8,53.5,56.5,46.9,39.0,89,52,22,29.89,29.58,6,0,17,0.28
2013-8-21,89.4,69.9,52.0,55.1,48.9,40.6,90,55,19,29.98,29.63,4,0,14,0.01
2013-8-22,86.4,72.0,59.9,54.0,47.9,42.4,65,45,24,29.85,29.58,5,0,19,0.00
2013-8-23,77.8,63.9,55.0,63.4,54.1,49.5,83,72,39,29.81,29.58,12,0,30,0.62
2013-8-24,78.9,64.6,54.2,53.7,50.1,40.7,86,63,26,29.90,29.69,3,0,13,0.01
2013-8-25,76.7,65.4,58.6,58.1,52.9,48.4,85,65,39,29.90,29.75,7,0,16,0.00
2013-8-26,61.5,60.4,60.1,57.1,56.6,55.8,89,87,84,29.91,29.82,0,0,3,0.00
2013-8-27,82.9,65.9,54.2,61.8,52.9,46.7,87,66,30,29.93,29.65,5,0,15,0.02
2013-8-28,89.8,72.0,56.0,55.5,50.0,42.9,84,52,21,29.87,29.60,5,0,19,0.00
2013-8-29,90.7,72.0,53.8,53.2,48.7,42.2,81,49,19,29.93,29.66,6,0,15,0.00
2013-8-30,84.4,69.7,57.7,55.3,50.0,44.7,73,52,27,29.91,29.68,6,0,15,0.00
2013-8-31,87.3,70.4,58.4,54.0,50.3,42.3,75,52,23,29.87,29.58,10,0,25,0.00
2013-9-1,86.0,70.6,55.9,55.0,50.6,45.1,82,53,27,29.84,29.58,5,0,13,0.00
2013-9-2,85.8,69.4,53.8,54.7,49.3,42.1,80,52,22,29.87,29.62,4,0,12,0.00
2013-9-3,89.0,70.9,52.5,50.6,46.6,39.8,77,47,19,29.92,29.65,6,0,16,0.00
2013-9-4,93.5,73.6,61.0,52.4,48.3,43.6,65,44,18,29.90,29.61,7,0,15,0.00
2013-9-5,90.0,72.8,56.6,53.6,48.5,45.0,71,46,23,29.92,29.65,10,0,26,0.00
2013-9-6,91.8,71.6,55.4,53.6,49.0,39.4,78,49,18,29.93,29.58,6,0,24,0.00
2013-9-7,91.3,69.3,52.8,53.6,48.6,39.7,83,54,18,29.91,29.56,5,0,17,0.00
2013-9-8,85.6,69.0,54.7,51.6,48.5,45.3,77,51,26,29.81,29.48,12,1,28,0.00
2013-9-9,69.0,60.5,55.7,55.6,53.8,49.2,89,79,52,29.75,29.55,8,0,20,0.08
2013-9-10,70.3,60.9,55.6,59.3,55.1,52.1,91,82,58,29.81,29.68,2,0,6,0.01
2013-9-11,73.0,62.7,57.8,57.1,55.0,52.6,89,77,53,29.85,29.73,3,0,18,0.00
2013-9-12,80.6,62.2,53.2,56.4,52.8,45.1,91,74,29,29.96,29.66,6,0,17,0.01
2013-9-13,76.5,63.5,55.3,55.8,51.4,43.1,92,68,32,29.81,29.52,2,0,10,0.01
2013-9-14,69.6,59.3,55.0,55.8,51.9,48.8,92,78,49,29.76,29.59,3,0,12,0.04
2013-9-15,69.5,57.8,52.3,55.4,50.9,48.1,90,79,50,29.92,29.73,3,0,11,0.00
2013-9-16,76.5,60.4,50.1,52.2,48.1,41.7,91,68,31,30.02,29.73,3,0,10,0.00
2013-9-17,76.4,57.9,45.7,54.7,47.7,42.6,89,72,36,29.95,29.61,12,1,27,0.05
2013-9-18,65.0,56.3,49.9,58.2,51.1,46.1,92,83,57,29.75,29.57,3,0,12,0.48
2013-9-19,71.5,56.2,45.9,48.3,39.7,29.1,92,60,21,29.92,29.72,4,0,15,0.02
2013-9-20,76.7,54.8,36.7,36.8,33.1,25.6,84,50,17,30.12,29.75,4,0,12,0.00
2013-9-21,77.6,58.1,42.6,42.5,37.0,32.5,75,50,22,29.93,29.54,4,0,10,0.00
2013-9-22,61.3,53.1,44.2,52.5,45.4,39.8,91,76,48,29.64,29.45,9,0,28,0.85
2013-9-23,63.1,50.9,42.9,44.8,39.3,32.3,93,68,33,30.03,29.56,3,0,12,0.40
2013-9-24,72.4,51.1,34.7,41.6,34.8,30.4,89,59,26,30.19,29.75,4,0,12,0.00
2013-9-25,77.6,58.8,37.5,40.0,31.1,25.5,79,42,15,29.77,29.18,9,1,27,0.00
2013-9-26,76.9,63.9,44.9,37.1,29.8,23.3,65,31,14,29.48,29.18,7,1,23,0.00
2013-9-27,65.5,45.5,35.7,44.8,37.4,31.5,89,75,34,30.09,29.29,12,1,26,0.51
2013-9-28,59.9,43.7,32.9,33.5,30.8,24.4,90,65,29,30.33,30.04,4,0,12,0.01
2013-9-29,66.5,47.0,31.2,35.1,30.5,27.5,89,58,24,30.24,29.89,6,1,17,0.00
2013-9-30,73.9,53.3,35.6,35.8,31.9,28.6,80,49,21,30.00,29.66,4,0,16,0.00
2013-10-1,75.8,54.6,36.0,37.1,32.7,29.0,83,50,19,29.99,29.66,7,1,17,0.00
2013-10-2,74.6,52.8,36.0,36.2,32.3,28.8,79,50,19,29.95,29.60,3,0,11,0.00
2013-10-3,72.2,51.6,36.7,37.0,31.7,25.1,86,53,19,29.73,29.39,14,2,29,0.18
2013-10-4,41.3,35.5,30.1,32.8,26.5,20.3,90,71,49,30.33,29.65,7,1,21,0.19
2013-10-5,50.2,38.1,30.1,30.7,24.6,20.6,77,60,35,30.47,30.26,3,0,15,0.00
2013-10-6,64.0,41.8,26.3,33.3,26.1,18.1,84,58,24,30.54,30.16,4,0,7,0.00
2013-10-7,72.0,48.4,30.1,34.3,29.2,23.8,86,54,18,30.33,29.84,3,0,10,0.00
2013-10-8,72.9,52.2,34.9,33.3,29.4,23.8,78,47,19,29.92,29.54,5,1,15,0.00
2013-10-9,67.0,50.2,36.7,34.1,29.6,24.8,76,49,22,29.80,29.56,4,0,9,0.00
2013-10-10,51.0,47.2,41.6,40.8,36.2,28.8,88,67,45,29.67,29.50,4,0,12,0.17
2013-10-11,48.8,41.4,38.9,41.2,37.5,35.1,91,86,68,30.02,29.68,3,0,9,0.00
2013-10-12,58.4,43.0,30.6,35.2,30.9,27.8,91,67,32,30.18,29.89,3,0,9,0.00
2013-10-13,68.3,43.5,31.5,40.2,31.2,27.2,84,66,24,30.09,29.66,5,1,26,0.01
2013-10-14,46.7,40.3,33.1,40.6,35.7,30.2,92,84,70,30.13,29.65,5,0,17,0.00
2013-10-15,48.8,40.9,35.6,35.9,31.7,26.7,89,71,46,30.13,29.97,4,0,12,0.00
2013-10-16,50.7,39.5,31.3,28.1,24.1,16.7,73,56,28,30.18,30.00,3,0,13,0.00
2013-10-17,53.8,38.7,25.5,33.5,23.5,19.0,84,59,28,30.24,29.90,3,0,11,0.00
2013-10-18,49.5,38.9,29.8,34.1,24.3,16.1,88,59,28,30.25,29.89,6,0,13,0.00
2013-10-19,57.2,37.8,23.2,24.9,21.2,17.9,81,55,25,30.36,30.02,3,0,11,0.00
2013-10-20,57.7,40.9,27.5,26.6,24.1,21.8,79,55,28,30.10,29.83,3,0,13,0.00
2013-10-21,58.4,42.9,30.0,31.4,26.6,23.6,83,56,28,30.22,29.92,4,0,12,0.00
2013-10-22,63.6,42.4,26.9,30.0,25.6,21.4,80,56,26,30.38,30.04,4,0,11,0.00
2013-10-23,68.5,44.5,28.2,30.3,26.1,23.3,82,54,20,30.30,29.93,4,1,11,0.00
2013-10-24,69.1,45.5,29.1,28.0,24.5,20.4,78,50,18,30.27,29.92,4,1,13,0.00
2013-10-25,62.6,45.9,31.0,31.7,27.3,23.6,75,51,26,30.23,29.95,2,0,13,0.00
2013-10-26,67.0,45.5,29.7,30.7,27.0,23.3,82,53,20,30.34,30.03,3,0,12,0.00
2013-10-27,62.9,43.7,27.8,28.1,25.4,21.6,78,52,25,30.18,29.75,5,1,12,0.00
2013-10-30,40.0,35.5,33.1,34.9,31.6,28.4,92,86,64,29.96,29.84,6,1,13,0.00
2013-10-31,40.3,35.6,32.9,33.8,30.6,27.5,90,82,62,30.10,29.95,2,0,9,0.00
2013-11-1,51.1,37.5,30.4,36.2,30.4,25.2,92,77,40,30.34,30.06,3,0,10,0.00
2013-11-2,54.4,36.2,23.8,28.7,24.1,19.3,87,65,31,30.43,29.91,4,1,10,0.00
2013-11-3,58.4,39.4,27.8,30.3,25.1,22.2,82,61,28,29.95,29.52,13,2,25,0.00
2013-11-4,42.8,32.9,22.4,28.2,22.2,16.0,80,66,46,30.07,29.81,13,1,27,0.00
2013-11-5,38.2,29.7,19.7,25.7,12.7,4.0,81,51,24,30.45,29.86,13,1,27,0.00
2013-11-6,43.5,27.0,15.3,17.9,12.5,6.9,74,56,30,30.64,30.44,3,1,9,0.00
2013-11-7,53.8,34.8,19.4,25.5,20.0,14.5,82,58,30,30.70,30.11,5,1,9,0.00
2013-11-8,57.2,39.3,24.7,26.7,22.0,19.3,83,55,24,30.19,29.92,12,1,20,0.00
2013-11-9,57.5,39.3,25.1,25.5,21.5,19.1,79,53,23,30.30,30.04,7,2,14,0.00
2013-11-10,60.7,39.5,25.1,25.4,21.7,19.4,79,54,22,30.43,30.09,8,2,17,0.00
2013-11-11,61.3,38.8,24.4,24.5,21.4,18.5,79,54,22,30.50,30.20,4,1,11,0.00
2013-11-12,61.5,38.6,24.8,24.1,20.1,16.0,77,52,20,30.67,30.30,5,1,9,0.00
2013-11-13,55.6,37.3,23.0,23.3,19.4,15.4,73,52,25,30.54,30.07,9,2,19,0.00
2013-11-14,53.9,38.4,26.9,28.3,22.0,17.7,79,55,25,30.21,29.75,4,0,12,0.00
2013-11-15,54.2,35.8,23.0,32.9,24.3,16.6,86,65,26,29.84,29.48,7,1,18,0.15
2013-11-16,38.8,34.2,29.4,33.1,30.5,26.3,90,86,76,29.63,29.46,4,1,13,0.31
2013-11-17,50.7,38.9,29.0,30.9,26.6,21.7,87,63,35,30.18,29.61,5,1,17,0.01
2013-11-18,52.3,33.6,22.4,26.3,22.1,18.2,85,66,28,30.43,30.08,4,1,7,0.00
2013-11-19,45.7,34.6,23.0,35.0,25.9,17.9,88,72,44,30.16,29.85,4,1,7,0.06
2013-11-20,49.2,40.4,33.8,37.7,33.2,26.5,92,77,44,29.91,29.69,3,0,9,0.06
2013-11-21,42.3,35.0,26.4,37.6,31.6,21.6,91,87,81,30.29,29.75,8,1,15,0.18
2013-11-22,36.3,31.3,26.0,29.1,25.0,20.7,90,78,63,30.43,30.27,7,1,13,0.02
2013-11-23,39.2,33.6,30.1,31.1,29.7,27.8,91,85,71,30.38,30.12,5,1,10,0.26
2013-11-24,37.6,34.8,32.1,33.0,30.7,28.8,90,85,76,30.14,29.97,4,0,7,0.03
2013-11-25,44.2,34.0,27.3,28.7,24.6,21.9,85,70,44,30.36,30.01,3,0,8,0.00
2013-11-26,47.1,30.4,20.3,24.4,20.6,16.2,84,69,33,30.58,30.32,4,1,10,0.00
2013-11-27,44.8,29.1,18.8,22.7,19.1,14.5,84,69,35,30.54,30.17,4,1,6,0.00
2013-11-28,47.1,30.6,19.6,24.3,20.3,15.6,84,68,34,30.40,30.09,5,1,12,0.00
2013-11-29,39.8,28.4,19.1,26.3,22.0,15.1,85,77,53,30.49,30.23,10,2,19,0.00
2013-11-30,40.9,29.7,23.3,25.3,22.2,19.1,85,74,50,30.52,30.25,7,2,14,0.00
2013-12-1,36.5,30.8,26.4,24.8,23.0,20.5,82,73,61,30.49,30.25,9,1,19,0.00
2013-12-2,39.2,33.2,30.6,25.4,24.3,23.5,76,70,55,30.27,29.75,13,3,24,0.00
2013-12-3,38.5,31.3,25.8,29.5,25.1,21.6,90,78,63,29.77,29.37,5,1,13,0.03
2013-12-4,26.7,13.7,-0.2,23.0,8.2,-6.8,89,78,70,30.37,29.35,0,0,1,0.00
2013-12-5,14.0,3.7,-2.3,2.7,-4.4,-9.6,74,69,57,30.41,30.20,1,0,4,0.00
2013-12-6,18.3,7.7,0.6,5.4,-0.3,-5.5,75,70,54,30.47,30.30,6,0,14,0.00
2013-12-7,19.1,14.9,9.0,15.3,9.7,1.8,85,79,74,30.41,29.80,3,0,6,0.00
2013-12-8,21.8,17.2,6.6,16.8,7.8,-1.1,86,67,48,30.25,29.72,12,2,27,0.00
2013-12-9,17.8,6.7,-4.4,0.6,-3.4,-11.4,79,64,38,30.89,30.24,4,1,11,0.02
2013-12-10,18.6,5.4,-7.5,3.9,-5.5,-14.7,72,61,44,30.94,30.61,6,1,14,0.00
2013-12-11,27.9,12.3,1.4,12.3,3.6,-4.6,79,68,49,30.92,30.61,5,1,9,0.00
2013-12-12,31.6,12.8,1.7,14.0,4.9,-3.8,81,71,45,30.97,30.44,4,2,9,0.08
2013-12-13,31.2,17.1,3.2,16.0,8.3,-2.1,81,69,51,30.48,30.21,5,1,11,0.02
2013-12-14,35.2,19.2,7.4,17.3,10.9,2.8,82,71,46,30.76,30.40,3,0,5,0.10
2013-12-15,36.5,23.8,15.3,19.7,14.9,9.5,81,69,48,30.76,30.47,4,1,7,0.07
2013-12-16,40.3,22.2,11.3,21.4,14.2,6.9,83,73,44,30.76,30.47,6,1,10,0.05
2013-12-17,41.6,22.8,12.0,21.1,14.5,7.3,83,71,41,30.81,30.45,4,1,7,0.01
2013-12-18,39.3,24.7,12.8,22.7,16.3,8.4,83,72,47,30.46,29.87,4,1,7,0.00
2013-12-19,47.1,34.2,25.7,27.5,23.3,20.0,81,66,34,29.86,29.53,7,1,15,0.00
2013-12-20,37.2,31.9,24.1,30.9,26.0,19.1,89,79,68,29.76,29.61,6,1,17,0.18
2013-12-21,30.1,23.9,16.2,22.1,17.0,9.7,84,75,57,30.08,29.71,4,0,14,0.03
2013-12-22,32.4,21.5,11.4,20.1,13.1,6.2,81,71,47,30.39,30.08,4,1,12,0.00
2013-12-23,36.5,27.7,23.3,22.1,19.9,17.9,83,73,51,30.55,30.34,4,1,10,0.02
2013-12-24,35.6,26.6,11.3,25.4,18.9,6.1,79,73,55,30.62,30.22,10,1,22,0.00
2013-12-25,31.0,15.0,3.6,10.0,4.6,-2.0,80,65,37,30.90,30.62,4,2,7,0.00
2013-12-26,33.7,16.3,4.4,13.1,5.8,-1.5,77,65,38,30.90,30.58,4,2,7,0.00
2013-12-27,38.5,20.2,8.5,17.8,10.5,3.1,79,67,38,30.83,30.43,5,1,7,0.00
2013-12-28,35.6,21.8,10.8,18.9,13.4,6.4,82,71,49,30.43,30.08,4,1,6,0.00
2013-12-29,36.7,25.2,15.9,18.2,14.0,6.5,83,64,38,30.39,30.13,7,1,15,0.00
2013-12-30,37.5,22.9,14.9,16.0,11.8,7.2,76,63,37,30.59,30.33,4,1,9,0.00
2013-12-31,31.8,23.8,16.2,23.7,17.6,10.0,86,77,66,30.53,30.23,4,0,6,0.03
2014-1-1,42.5,29.8,16.6,26.3,18.4,8.0,89,66,30,30.48,30.15,7,1,19,0.09
2014-1-2,37.0,19.3,7.4,13.5,8.0,2.0,78,63,32,30.72,30.40,5,2,6,0.00